Time;durP1;ratioP1;P1;durP2;ratioP2;P2;SDS_P1;SDS_P2;PMS_P1;PMS_P2;Temp;Humidity;BMP_temperature;BMP_pressure;BME280_temperature;BME280_humidity;BME280_pressure;Samples;Min_cycle;Max_cycle;Signal;HPM_P1;HPM_P2
2021/12/05 00:23:51;;;;;;;12.85;2.10;;;14.30;97.80;;;;;;5032676;28;20049;-73
2021/12/05 00:26:19;;;;;;;14.35;2.95;;;14.30;97.70;;;;;;5032308;28;20388;-71
2021/12/05 00:34:09;;;;;;;15.50;2.65;;;14.30;97.60;;;;;;5036550;28;20037;-72
2021/12/05 00:50:40;;;;;;;9.40;1.85;;;14.50;97.20;;;;;;5036209;28;20127;-72
2021/12/05 01:15:57;;;;;;;16.88;2.70;;;14.50;97.70;;;;;;5035917;28;20541;-71
2021/12/05 01:18:25;;;;;;;12.80;2.30;;;14.50;97.90;;;;;;5035896;28;20052;-71
2021/12/05 01:20:56;;;;;;;22.17;2.92;;;14.50;98.00;;;;;;5035731;28;20033;-71
2021/12/05 01:23:36;;;;;;;19.40;3.47;;;14.50;98.20;;;;;;5035317;28;20086;-70
2021/12/05 01:26:07;;;;;;;23.52;4.25;;;14.40;98.20;;;;;;5035383;28;20024;-74
2021/12/05 01:47:41;;;;;;;14.52;3.00;;;14.30;99.60;;;;;;5034990;28;20041;-71
2021/12/05 02:31:16;;;;;;;20.95;3.58;;;14.20;99.90;;;;;;5034131;28;19912;-71
2021/12/05 02:37:30;;;;;;;19.70;4.32;;;14.20;99.90;;;;;;5034406;28;20119;-72
2021/12/05 02:39:39;;;;;;;18.60;3.67;;;14.20;99.90;;;;;;5037715;28;20087;-71
2021/12/05 02:41:57;;;;;;;19.90;2.92;;;14.10;99.90;;;;;;5033909;28;20133;-71
2021/12/05 02:44:24;;;;;;;20.35;3.35;;;14.10;99.90;;;;;;5033990;28;20033;-71
2021/12/05 02:47:04;;;;;;;22.90;3.08;;;14.10;99.90;;;;;;5033909;28;20096;-70
2021/12/05 02:49:32;;;;;;;19.05;2.70;;;14.20;99.90;;;;;;5033557;28;20101;-72
2021/12/05 02:52:06;;;;;;;20.35;3.22;;;14.20;99.90;;;;;;5033562;28;20099;-71
2021/12/05 02:54:38;;;;;;;17.25;2.80;;;14.20;99.90;;;;;;5033737;28;20036;-71
2021/12/05 02:57:05;;;;;;;17.25;2.97;;;14.20;99.90;;;;;;5065184;28;20094;-72
2021/12/05 03:02:13;;;;;;;13.95;2.80;;;14.10;99.50;;;;;;5033358;28;20037;-71
2021/12/05 03:04:42;;;;;;;17.38;2.67;;;14.10;99.50;;;;;;5033469;28;20033;-70
2021/12/05 03:07:10;;;;;;;16.05;2.80;;;14.20;99.30;;;;;;5033606;28;20077;-70
2021/12/05 03:09:39;;;;;;;19.25;3.17;;;14.20;99.10;;;;;;5033519;28;20018;-70
2021/12/05 03:12:09;;;;;;;17.60;3.05;;;14.20;98.90;;;;;;5033526;28;20029;-70
2021/12/05 03:14:36;;;;;;;15.52;2.97;;;14.20;98.90;;;;;;5033308;28;20109;-71
2021/12/05 03:17:02;;;;;;;18.23;3.45;;;14.20;98.80;;;;;;5033064;28;20037;-70
2021/12/05 03:19:28;;;;;;;21.17;3.13;;;14.20;98.80;;;;;;5033076;28;20026;-71
2021/12/05 03:21:54;;;;;;;15.23;2.60;;;14.20;98.70;;;;;;5032943;28;20460;-70
2021/12/05 03:24:22;;;;;;;17.00;2.80;;;14.10;98.60;;;;;;5033366;28;20032;-70
2021/12/05 03:26:51;;;;;;;14.45;2.78;;;14.10;98.50;;;;;;5033004;28;20091;-70
2021/12/05 03:29:18;;;;;;;23.02;3.17;;;14.10;98.40;;;;;;5033168;28;20632;-71
2021/12/05 03:31:46;;;;;;;18.30;3.08;;;14.10;98.30;;;;;;5032836;28;20017;-70
2021/12/05 03:34:16;;;;;;;21.30;3.80;;;14.10;98.20;;;;;;5033082;28;20049;-71
2021/12/05 03:36:46;;;;;;;22.67;3.83;;;14.10;98.10;;;;;;5033046;28;20022;-71
2021/12/05 03:39:13;;;;;;;20.63;3.17;;;14.10;98.00;;;;;;5032992;28;20036;-71
2021/12/05 03:41:40;;;;;;;23.55;3.40;;;14.10;97.90;;;;;;5033151;28;20106;-71
2021/12/05 03:44:11;;;;;;;22.45;3.92;;;14.10;97.80;;;;;;5032843;28;20021;-71
2021/12/05 03:46:38;;;;;;;22.08;3.10;;;14.10;97.80;;;;;;5032915;28;20136;-70
2021/12/05 03:49:07;;;;;;;21.42;3.67;;;14.00;97.80;;;;;;5032759;28;20026;-71
2021/12/05 03:51:36;;;;;;;27.85;3.88;;;14.00;97.70;;;;;;5031321;28;20371;-70
2021/12/05 03:54:05;;;;;;;15.52;2.95;;;13.90;97.70;;;;;;5031286;28;20067;-71
2021/12/05 03:56:31;;;;;;;18.20;3.80;;;13.90;97.70;;;;;;5032608;28;20029;-71
2021/12/05 03:58:57;;;;;;;26.42;4.28;;;13.90;97.60;;;;;;5032623;28;20079;-70
2021/12/05 04:01:25;;;;;;;20.40;3.05;;;13.90;97.60;;;;;;5032635;28;20121;-71
2021/12/05 04:03:52;;;;;;;19.17;3.13;;;13.90;97.50;;;;;;5032598;28;20451;-71
2021/12/05 04:06:21;;;;;;;21.15;3.63;;;13.90;97.40;;;;;;5031954;28;20377;-70
2021/12/05 04:08:49;;;;;;;20.63;3.10;;;13.90;97.40;;;;;;5032640;28;20104;-70
2021/12/05 04:11:21;;;;;;;20.45;3.65;;;13.90;97.30;;;;;;5032511;28;20037;-71
2021/12/05 04:13:47;;;;;;;16.30;2.87;;;13.90;97.30;;;;;;5032789;28;20426;-71
2021/12/05 04:16:14;;;;;;;18.38;3.15;;;13.90;97.20;;;;;;5032432;28;20299;-71
2021/12/05 04:18:42;;;;;;;21.50;3.33;;;13.90;97.20;;;;;;5032888;28;20072;-71
2021/12/05 04:21:09;;;;;;;19.17;3.30;;;13.90;97.50;;;;;;5032332;28;20125;-71
2021/12/05 04:23:35;;;;;;;19.33;3.67;;;13.90;97.20;;;;;;5032321;28;20029;-70
2021/12/05 04:26:01;;;;;;;24.10;4.10;;;13.90;97.20;;;;;;5032534;28;20095;-70
2021/12/05 04:28:27;;;;;;;16.77;3.22;;;13.90;97.30;;;;;;5032351;28;20034;-71
2021/12/05 04:30:53;;;;;;;19.80;3.55;;;13.90;97.30;;;;;;5032233;28;20025;-70
2021/12/05 04:33:19;;;;;;;21.92;3.85;;;13.90;97.40;;;;;;5032570;28;20052;-71
2021/12/05 04:35:46;;;;;;;26.70;3.85;;;13.90;97.50;;;;;;5032394;28;20363;-71
2021/12/05 04:38:12;;;;;;;21.83;3.92;;;13.90;97.50;;;;;;5032378;28;20075;-72
2021/12/05 04:40:39;;;;;;;27.00;4.65;;;13.90;97.60;;;;;;5031410;28;20033;-71
2021/12/05 04:43:05;;;;;;;19.63;3.95;;;13.90;97.60;;;;;;5032155;28;20104;-71
2021/12/05 04:45:33;;;;;;;23.80;3.28;;;13.90;97.70;;;;;;5030830;28;20033;-71
2021/12/05 04:48:00;;;;;;;26.20;4.03;;;13.90;97.70;;;;;;5032173;28;20018;-71
2021/12/05 04:50:26;;;;;;;25.85;3.90;;;13.90;97.70;;;;;;5032517;28;20534;-73
2021/12/05 04:52:53;;;;;;;23.83;4.22;;;14.00;97.80;;;;;;5032199;28;20065;-72
2021/12/05 04:55:20;;;;;;;25.60;4.88;;;14.00;97.80;;;;;;5032425;28;20080;-70
2021/12/05 04:57:46;;;;;;;25.55;4.75;;;14.00;98.00;;;;;;5032380;28;20013;-71
2021/12/05 05:00:28;;;;;;;25.27;4.47;;;14.00;98.00;;;;;;5032105;28;20030;-71
2021/12/05 05:02:55;;;;;;;24.83;4.93;;;14.00;98.20;;;;;;5032086;28;20025;-71
2021/12/05 05:05:22;;;;;;;25.48;4.63;;;14.00;98.10;;;;;;5030582;28;20018;-71
2021/12/05 05:07:48;;;;;;;29.48;3.97;;;14.00;98.20;;;;;;5031923;28;20104;-72
2021/12/05 05:10:18;;;;;;;30.10;4.95;;;14.00;98.30;;;;;;5032138;28;20026;-72
2021/12/05 05:12:44;;;;;;;26.15;4.20;;;14.00;98.50;;;;;;5030412;28;20030;-71
2021/12/05 05:15:12;;;;;;;29.88;5.13;;;14.00;98.80;;;;;;5032075;28;20021;-71
2021/12/05 05:17:39;;;;;;;24.60;4.43;;;14.00;98.90;;;;;;5034891;28;20508;-72
2021/12/05 05:23:31;;;;;;;25.70;4.82;;;14.00;99.30;;;;;;5033944;28;20465;-71
2021/12/05 05:50:37;;;;;;;25.08;4.18;;;13.90;99.90;;;;;;5034937;28;20391;-71
2021/12/05 05:53:03;;;;;;;29.77;5.20;;;13.90;99.70;;;;;;5034850;28;20344;-71
2021/12/05 05:55:29;;;;;;;27.33;5.13;;;13.90;99.70;;;;;;5034892;28;20534;-72
2021/12/05 06:00:38;;;;;;;25.73;6.00;;;13.90;99.70;;;;;;5035152;28;20095;-71
2021/12/05 06:03:21;;;;;;;;;;;13.90;99.70;;;;;;5035151;28;20356;-71
2021/12/05 06:05:50;;;;;;;25.27;4.00;;;13.90;99.60;;;;;;5034577;28;19992;-71
2021/12/05 06:08:16;;;;;;;19.52;4.03;;;13.80;99.50;;;;;;5034492;28;20049;-71
2021/12/05 06:10:42;;;;;;;29.20;4.95;;;13.80;99.70;;;;;;5034391;28;20029;-71
2021/12/05 06:13:08;;;;;;;25.77;4.78;;;13.70;99.70;;;;;;5034444;28;20363;-71
2021/12/05 06:15:34;;;;;;;30.23;5.32;;;13.70;99.80;;;;;;5033336;28;20022;-71
2021/12/05 06:18:00;;;;;;;33.92;5.88;;;13.60;99.90;;;;;;5034505;28;20479;-71
2021/12/05 06:20:29;;;;;;;32.55;4.65;;;13.60;99.90;;;;;;5034183;28;20128;-72
2021/12/05 06:22:56;;;;;;;27.70;4.97;;;13.60;99.90;;;;;;5034066;28;20049;-72
2021/12/05 06:25:24;;;;;;;37.63;5.38;;;13.60;99.90;;;;;;5034338;28;20044;-73
2021/12/05 06:28:01;;;;;;;32.55;5.35;;;13.60;99.90;;;;;;5033488;28;20378;-71
2021/12/05 06:48:46;;;;;;;26.52;4.47;;;13.80;99.20;;;;;;5033804;28;20021;-72
2021/12/05 06:51:14;;;;;;;34.67;5.25;;;13.90;98.70;;;;;;5033691;28;20021;-71
2021/12/05 06:53:40;;;;;;;27.85;5.10;;;14.00;98.40;;;;;;5033695;28;20033;-71
2021/12/05 06:56:07;;;;;;;31.33;4.85;;;14.10;98.00;;;;;;5033563;28;20325;-71
2021/12/05 06:58:33;;;;;;;31.08;5.45;;;14.20;97.60;;;;;;5033523;28;20029;-71
2021/12/05 07:01:01;;;;;;;41.58;6.13;;;14.20;97.20;;;;;;5033420;28;20056;-71
2021/12/05 07:03:27;;;;;;;31.45;4.95;;;14.30;97.10;;;;;;5033609;28;20025;-71
2021/12/05 07:06:03;;;;;;;27.23;4.50;;;14.30;97.00;;;;;;5033613;28;20204;-71
2021/12/05 07:08:33;;;;;;;32.17;5.47;;;14.30;96.80;;;;;;5033825;28;20037;-70
2021/12/05 07:11:06;;;;;;;26.13;4.60;;;14.30;96.60;;;;;;5033456;28;20029;-71
2021/12/05 07:14:12;;;;;;;34.75;5.70;;;14.30;96.40;;;;;;5033548;28;20420;-72
2021/12/05 07:21:54;;;;;;;30.98;5.35;;;14.20;96.40;;;;;;5033327;28;20151;-71
2021/12/05 07:40:29;;;;;;;28.50;5.45;;;14.00;96.20;;;;;;5032495;28;20517;-71
2021/12/05 07:42:55;;;;;;;34.22;5.50;;;14.10;96.20;;;;;;5032684;28;20059;-70
2021/12/05 07:45:28;;;;;;;30.83;4.45;;;14.20;96.00;;;;;;5031491;28;20064;-72
2021/12/05 07:47:55;;;;;;;33.78;5.03;;;14.30;95.80;;;;;;5032708;28;20033;-70
2021/12/05 07:50:33;;;;;;;22.77;4.85;;;14.30;95.60;;;;;;5032796;28;20029;-71
2021/12/05 07:53:06;;;;;;;30.55;6.00;;;14.30;95.40;;;;;;5032689;28;20026;-72
2021/12/05 07:55:39;;;;;;;33.08;7.13;;;14.30;95.40;;;;;;5032913;28;20029;-71
2021/12/05 08:16:44;;;;;;;30.38;5.40;;;14.20;95.50;;;;;;5032446;28;19916;-71
2021/12/05 08:19:10;;;;;;;30.40;6.53;;;14.20;95.60;;;;;;5032661;28;20482;-71
2021/12/05 08:21:35;;;;;;;26.83;5.80;;;14.30;95.50;;;;;;5032065;28;20053;-71
2021/12/05 08:24:01;;;;;;;33.60;5.50;;;14.40;95.40;;;;;;5032597;28;20526;-72
2021/12/05 08:26:32;;;;;;;22.67;5.05;;;14.40;95.20;;;;;;5032497;28;20094;-72
2021/12/05 08:29:06;;;;;;;26.95;6.03;;;14.50;94.90;;;;;;5032446;28;20030;-72
2021/12/05 08:31:58;;;;;;;22.88;4.80;;;14.50;94.70;;;;;;5062079;28;20048;-71
2021/12/05 08:42:55;;;;;;;29.45;10.38;;;14.70;94.10;;;;;;5032124;28;20049;-72
2021/12/05 08:45:39;;;;;;;20.98;4.05;;;14.80;94.00;;;;;;5032706;28;20209;-72
2021/12/05 09:52:22;;;;;;;17.88;3.28;;;15.50;81.60;;;;;;5034829;28;20029;-71
2021/12/05 10:02:45;;;;;;;17.50;3.17;;;15.30;79.40;;;;;;5033508;28;20561;-72
2021/12/05 10:08:42;;;;;;;12.15;2.97;;;15.30;78.10;;;;;;5034465;28;20441;-71
2021/12/05 10:16:22;;;;;;;18.70;3.75;;;15.40;78.00;;;;;;5034211;28;20025;-72
2021/12/05 10:27:14;;;;;;;18.98;3.97;;;15.60;79.90;;;;;;5034112;28;20037;-73
2021/12/05 10:35:59;;;;;;;20.23;3.60;;;15.50;78.70;;;;;;5033835;28;20485;-72
2021/12/05 10:38:17;;;;;;;17.15;3.33;;;15.40;77.90;;;;;;5033355;28;20037;-72
2021/12/05 10:43:41;;;;;;;19.75;3.63;;;15.20;77.90;;;;;;5033483;28;20087;-73
2021/12/05 10:46:10;;;;;;;14.77;2.72;;;15.20;77.40;;;;;;5033656;28;20060;-73
2021/12/05 10:48:39;;;;;;;14.57;3.83;;;15.20;76.60;;;;;;5033737;28;20028;-71
2021/12/05 10:51:15;;;;;;;22.65;3.15;;;15.20;75.80;;;;;;5033325;28;20026;-72
2021/12/05 10:53:48;;;;;;;22.52;3.65;;;15.10;75.60;;;;;;5033342;28;20104;-72
2021/12/05 10:56:33;;;;;;;23.30;3.50;;;15.10;76.30;;;;;;5033591;28;20022;-72
2021/12/05 10:59:20;;;;;;;19.25;4.15;;;15.10;76.70;;;;;;5033186;28;20028;-72
2021/12/05 11:01:58;;;;;;;16.60;3.22;;;15.00;76.70;;;;;;5031668;28;20029;-72
2021/12/05 11:04:33;;;;;;;21.52;4.03;;;15.10;76.60;;;;;;5033339;28;20045;-72
2021/12/05 11:07:21;;;;;;;14.75;3.78;;;15.30;76.00;;;;;;5031964;28;20036;-72
2021/12/05 11:09:59;;;;;;;22.30;4.18;;;15.50;74.80;;;;;;5032785;28;20034;-71
2021/12/05 11:12:31;;;;;;;18.85;3.78;;;15.60;74.60;;;;;;5031587;28;20033;-71
2021/12/05 11:15:01;;;;;;;21.80;2.80;;;15.70;74.10;;;;;;5032677;28;20103;-71
2021/12/05 11:17:33;;;;;;;13.60;3.05;;;15.70;73.30;;;;;;5031598;28;20029;-71
2021/12/05 11:20:09;;;;;;;16.38;2.53;;;16.00;73.00;;;;;;5031693;28;20117;-72
2021/12/05 11:22:44;;;;;;;17.17;2.75;;;16.10;72.40;;;;;;5031262;28;20471;-72
2021/12/05 11:25:16;;;;;;;18.70;3.47;;;16.30;72.00;;;;;;5032796;28;20088;-72
2021/12/05 11:27:44;;;;;;;18.58;3.40;;;16.30;71.20;;;;;;5033065;28;20029;-72
2021/12/05 11:30:32;;;;;;;21.10;4.03;;;16.20;71.70;;;;;;5032766;28;20533;-72
2021/12/05 11:33:03;;;;;;;19.58;3.97;;;16.20;72.10;;;;;;5032716;28;20075;-73
2021/12/05 11:35:34;;;;;;;13.25;3.05;;;16.20;72.60;;;;;;5032901;28;20040;-72
2021/12/05 11:38:06;;;;;;;22.50;3.60;;;16.10;72.90;;;;;;5033012;28;20053;-71
2021/12/05 11:41:02;;;;;;;20.00;3.90;;;16.00;74.00;;;;;;5032111;28;20124;-71
2021/12/05 11:43:37;;;;;;;22.30;4.78;;;16.00;74.20;;;;;;5031232;28;20029;-72
2021/12/05 11:46:15;;;;;;;25.58;5.00;;;15.90;74.30;;;;;;5031704;28;20021;-71
2021/12/05 11:48:46;;;;;;;17.27;3.35;;;15.90;74.90;;;;;;5031875;28;20025;-74
2021/12/05 11:51:32;;;;;;;17.17;3.67;;;15.90;74.20;;;;;;5033061;28;20486;-72
2021/12/05 11:54:09;;;;;;;20.55;3.88;;;16.00;73.80;;;;;;5033316;28;20036;-73
2021/12/05 11:56:34;;;;;;;18.80;4.10;;;16.00;73.70;;;;;;5032915;28;20108;-73
2021/12/05 11:59:18;;;;;;;15.55;2.95;;;15.90;73.50;;;;;;5032621;28;20057;-74
2021/12/05 12:01:47;;;;;;;15.82;3.28;;;15.80;73.10;;;;;;5032385;28;20041;-73
2021/12/05 12:04:16;;;;;;;20.92;3.75;;;15.70;73.90;;;;;;5032547;28;20030;-74
2021/12/05 12:06:43;;;;;;;21.48;3.33;;;15.60;73.10;;;;;;5031500;28;20370;-73
2021/12/05 12:09:12;;;;;;;13.38;3.08;;;15.50;72.40;;;;;;5031056;28;20509;-72
2021/12/05 12:11:38;;;;;;;17.75;3.20;;;15.50;72.50;;;;;;5032409;28;20026;-73
2021/12/05 12:14:04;;;;;;;17.00;3.15;;;15.60;71.90;;;;;;5032461;28;20087;-71
2021/12/05 12:16:33;;;;;;;19.10;3.55;;;15.60;71.60;;;;;;5030816;28;20029;-73
2021/12/05 12:19:02;;;;;;;21.30;2.92;;;15.50;70.80;;;;;;5032367;28;20079;-72
2021/12/05 12:21:41;;;;;;;16.83;3.10;;;15.60;70.50;;;;;;5032566;28;20431;-72
2021/12/05 12:24:10;;;;;;;15.80;3.20;;;15.80;69.40;;;;;;5032490;28;20025;-73
2021/12/05 12:26:37;;;;;;;15.30;4.15;;;16.00;69.10;;;;;;5032825;28;20025;-74
2021/12/05 12:29:04;;;;;;;26.15;6.30;;;16.10;68.60;;;;;;5036326;28;20029;-72
2021/12/05 12:31:36;;;;;;;19.40;3.95;;;16.30;68.20;;;;;;5036164;28;20034;-71
2021/12/05 12:34:08;;;;;;;23.38;3.83;;;16.40;67.50;;;;;;5034857;28;20091;-73
2021/12/05 12:36:52;;;;;;;15.60;3.03;;;16.50;66.80;;;;;;5034989;28;20086;-71
2021/12/05 12:39:21;;;;;;;10.18;2.58;;;16.50;66.60;;;;;;5036596;28;20025;-72
2021/12/05 12:42:05;;;;;;;16.73;2.95;;;16.50;66.20;;;;;;5036027;28;20033;-72
2021/12/05 12:44:31;;;;;;;15.15;2.80;;;16.50;65.60;;;;;;5036314;28;20084;-72
2021/12/05 12:47:06;;;;;;;13.38;2.45;;;16.50;65.30;;;;;;5034722;28;20040;-73
2021/12/05 12:49:39;;;;;;;13.77;3.15;;;16.60;65.30;;;;;;5036118;28;20025;-71
2021/12/05 12:52:11;;;;;;;24.45;2.60;;;16.70;65.00;;;;;;5036025;28;20032;-72
2021/12/05 12:54:48;;;;;;;17.70;3.45;;;16.80;65.20;;;;;;5035972;28;20033;-73
2021/12/05 12:57:22;;;;;;;16.95;3.30;;;16.90;64.40;;;;;;5035774;28;20026;-71
2021/12/05 12:59:56;;;;;;;16.63;3.42;;;16.90;63.90;;;;;;5035901;28;20427;-73
2021/12/05 13:02:30;;;;;;;;;;;16.90;63.80;;;;;;5036043;28;20534;-73
2021/12/05 13:05:19;;;;;;;16.10;3.28;;;16.90;61.60;;;;;;5035856;28;19908;-72
2021/12/05 13:10:45;;;;;;;13.27;3.20;;;17.00;62.70;;;;;;5035661;28;20028;-72
2021/12/05 13:13:23;;;;;;;25.27;3.67;;;17.00;62.70;;;;;;5035686;28;20488;-72
2021/12/05 13:15:53;;;;;;;14.10;3.10;;;17.00;61.90;;;;;;5034066;28;20041;-72
2021/12/05 13:18:29;;;;;;;16.92;2.88;;;16.90;61.80;;;;;;5035347;28;20036;-74
2021/12/05 13:21:07;;;;;;;15.40;3.20;;;16.80;62.20;;;;;;5033826;28;20041;-73
2021/12/05 13:23:38;;;;;;;15.85;3.10;;;16.60;62.70;;;;;;5035450;28;20068;-73
2021/12/05 13:26:04;;;;;;;19.27;2.90;;;16.50;62.90;;;;;;5035852;28;20088;-73
2021/12/05 13:28:43;;;;;;;15.93;4.35;;;16.40;63.10;;;;;;5034272;28;20029;-72
2021/12/05 13:31:27;;;;;;;15.18;3.60;;;16.20;63.20;;;;;;5035614;28;20037;-74
2021/12/05 13:34:16;;;;;;;15.93;4.28;;;16.20;63.60;;;;;;5035306;28;20026;-73
2021/12/05 13:36:44;;;;;;;13.80;2.88;;;16.20;63.80;;;;;;5035490;28;20419;-73
2021/12/05 13:39:43;;;;;;;13.77;2.90;;;16.20;63.50;;;;;;5034265;28;20029;-73
2021/12/05 13:42:17;;;;;;;16.00;2.65;;;16.30;62.80;;;;;;5034098;28;20025;-73
2021/12/05 13:45:02;;;;;;;16.73;2.78;;;16.40;62.70;;;;;;5035504;28;20064;-73
2021/12/05 13:47:37;;;;;;;13.93;3.10;;;16.40;62.70;;;;;;5035220;28;20040;-72
2021/12/05 13:50:29;;;;;;;31.83;12.23;;;16.30;62.10;;;;;;5035175;28;20030;-73
2021/12/05 13:53:05;;;;;;;14.18;3.42;;;16.40;62.70;;;;;;5034866;28;20062;-71
2021/12/05 13:55:59;;;;;;;16.98;3.40;;;16.60;62.10;;;;;;5034857;28;20029;-72
2021/12/05 13:58:25;;;;;;;14.15;2.85;;;16.80;61.80;;;;;;5034731;28;20041;-73
2021/12/05 14:00:54;;;;;;;13.88;2.70;;;17.00;61.00;;;;;;5034660;28;20092;-72
2021/12/05 14:03:55;;;;;;;14.55;3.30;;;17.10;60.90;;;;;;5034858;28;20485;-73
2021/12/05 14:06:35;;;;;;;16.77;2.72;;;17.00;61.00;;;;;;5032780;28;20166;-73
2021/12/05 14:09:10;;;;;;;18.33;2.35;;;16.80;60.90;;;;;;5034780;28;20038;-72
2021/12/05 14:11:51;;;;;;;15.68;2.17;;;16.60;61.00;;;;;;5033329;28;20450;-72
2021/12/05 14:14:19;;;;;;;12.60;2.20;;;16.40;60.80;;;;;;5034546;28;20024;-73
2021/12/05 14:16:46;;;;;;;14.82;2.22;;;16.20;61.50;;;;;;5034594;28;20057;-72
2021/12/05 14:19:15;;;;;;;18.63;2.85;;;16.00;62.10;;;;;;5034551;28;20022;-72
2021/12/05 14:21:44;;;;;;;16.20;3.30;;;15.90;62.20;;;;;;5034295;28;20050;-72
2021/12/05 14:24:11;;;;;;;14.60;2.70;;;15.90;62.60;;;;;;5032931;28;20025;-73
2021/12/05 14:26:39;;;;;;;13.82;2.75;;;15.90;62.80;;;;;;5033518;28;20033;-73
2021/12/05 14:29:15;;;;;;;14.15;3.13;;;15.90;62.80;;;;;;5033207;28;20021;-73
2021/12/05 14:32:14;;;;;;;14.15;2.65;;;15.90;62.70;;;;;;5034319;28;20053;-71
2021/12/05 14:34:42;;;;;;;18.55;3.10;;;15.80;63.20;;;;;;5034057;28;20122;-73
2021/12/05 14:37:13;;;;;;;10.88;2.25;;;15.80;63.70;;;;;;5034402;28;20037;-72
2021/12/05 14:39:49;;;;;;;13.80;2.90;;;15.70;63.70;;;;;;5034334;28;20021;-72
2021/12/05 14:42:19;;;;;;;13.43;2.83;;;15.60;63.50;;;;;;5034083;28;20045;-72
2021/12/05 14:44:49;;;;;;;18.48;3.08;;;15.50;63.50;;;;;;5032971;28;20032;-73
2021/12/05 14:47:21;;;;;;;13.68;2.95;;;15.50;64.00;;;;;;5032904;28;20060;-73
2021/12/05 14:49:57;;;;;;;15.88;2.83;;;15.50;64.10;;;;;;5032214;28;20413;-73
2021/12/05 14:52:31;;;;;;;16.02;2.95;;;15.50;64.10;;;;;;5034137;28;20030;-72
2021/12/05 14:55:00;;;;;;;12.20;3.28;;;15.50;63.90;;;;;;5034105;28;20091;-73
2021/12/05 14:57:30;;;;;;;12.27;2.88;;;15.50;64.30;;;;;;5033842;28;20021;-73
2021/12/05 15:00:05;;;;;;;11.60;2.80;;;15.50;64.30;;;;;;5034047;28;20430;-71
2021/12/05 15:02:30;;;;;;;15.95;2.85;;;15.50;64.10;;;;;;5032075;28;20026;-72
2021/12/05 15:04:56;;;;;;;12.93;2.88;;;15.50;64.20;;;;;;5033540;28;20072;-72
2021/12/05 15:07:24;;;;;;;20.02;4.20;;;15.50;64.30;;;;;;5033254;28;20025;-72
2021/12/05 15:09:54;;;;;;;16.08;3.20;;;15.40;64.20;;;;;;5033314;28;20026;-72
2021/12/05 15:12:26;;;;;;;12.30;3.80;;;15.40;64.60;;;;;;5033216;28;20045;-71
2021/12/05 15:14:55;;;;;;;15.32;4.45;;;15.30;64.80;;;;;;5032028;28;20025;-73
2021/12/05 15:17:26;;;;;;;21.15;3.65;;;15.30;65.00;;;;;;5033314;28;20379;-72
2021/12/05 15:20:19;;;;;;;13.32;2.80;;;15.20;65.20;;;;;;5033107;28;20455;-72
2021/12/05 15:28:38;;;;;;;24.30;4.28;;;14.90;67.10;;;;;;5050292;28;20053;-70
2021/12/05 15:31:06;;;;;;;16.35;4.65;;;14.90;67.10;;;;;;5036234;28;20029;-75
2021/12/05 15:33:34;;;;;;;15.95;3.58;;;14.80;67.40;;;;;;5053840;28;20500;-73
2021/12/05 15:36:00;;;;;;;17.73;3.25;;;14.80;67.70;;;;;;5047845;28;20197;-70
2021/12/05 15:38:30;;;;;;;16.65;3.70;;;14.70;68.10;;;;;;5033482;28;20084;-71
2021/12/05 15:41:00;;;;;;;20.63;5.03;;;14.70;68.20;;;;;;5033638;28;20104;-70
2021/12/05 15:43:28;;;;;;;13.77;3.55;;;14.60;68.60;;;;;;5033494;28;20045;-71
2021/12/05 15:45:56;;;;;;;18.23;3.88;;;14.60;68.90;;;;;;5033063;28;20545;-71
2021/12/05 15:48:27;;;;;;;20.35;4.15;;;14.60;69.20;;;;;;5032925;28;20101;-70
2021/12/05 15:50:54;;;;;;;21.13;4.75;;;14.50;69.20;;;;;;5033027;28;20036;-74
2021/12/05 15:53:22;;;;;;;16.67;3.67;;;14.50;69.40;;;;;;5032906;28;20026;-70
2021/12/05 15:55:52;;;;;;;15.55;4.45;;;14.40;69.60;;;;;;5032922;28;20227;-71
2021/12/05 15:58:30;;;;;;;15.10;4.93;;;14.40;70.00;;;;;;5033003;28;20025;-72
2021/12/05 16:01:02;;;;;;;21.45;3.85;;;14.30;70.30;;;;;;5032021;28;20478;-73
2021/12/05 16:03:42;;;;;;;18.90;4.50;;;14.30;70.70;;;;;;5032684;28;20083;-72
2021/12/05 16:06:08;;;;;;;16.33;3.65;;;14.20;71.30;;;;;;5033074;28;20527;-72
2021/12/05 16:08:34;;;;;;;17.15;3.67;;;14.20;71.10;;;;;;5033102;28;20144;-71
2021/12/05 16:11:01;;;;;;;18.23;3.72;;;14.20;71.20;;;;;;5032971;28;20144;-72
2021/12/05 16:13:38;;;;;;;15.82;4.70;;;14.10;71.10;;;;;;5033381;28;20531;-70
2021/12/05 16:16:13;;;;;;;22.15;4.38;;;14.10;71.40;;;;;;5032927;28;20082;-71
2021/12/05 16:18:42;;;;;;;19.80;3.90;;;14.00;71.70;;;;;;5015024;28;20025;-71
2021/12/05 16:21:26;;;;;;;17.35;3.85;;;14.00;71.80;;;;;;5015187;28;20604;-71
2021/12/05 16:23:52;;;;;;;19.98;4.60;;;13.90;72.30;;;;;;5032979;28;20026;-70
2021/12/05 16:26:23;;;;;;;17.60;4.55;;;13.90;72.10;;;;;;5032881;28;20025;-71
2021/12/05 16:28:53;;;;;;;18.48;4.40;;;13.80;72.50;;;;;;5032593;28;20049;-71
2021/12/05 16:31:21;;;;;;;19.88;5.55;;;13.80;72.50;;;;;;5032832;28;20036;-71
2021/12/05 16:33:51;;;;;;;22.23;4.95;;;13.70;72.90;;;;;;5015568;28;20037;-71
2021/12/05 16:36:19;;;;;;;21.63;4.22;;;13.60;73.10;;;;;;5032813;28;20508;-73
2021/12/05 16:38:48;;;;;;;19.98;4.53;;;13.50;74.20;;;;;;5032794;28;20128;-71
2021/12/05 16:41:33;;;;;;;19.90;4.30;;;13.40;73.90;;;;;;5015085;28;20030;-70
2021/12/05 16:44:12;;;;;;;17.63;4.43;;;13.40;74.20;;;;;;5033045;28;20036;-73
2021/12/05 16:46:41;;;;;;;15.30;4.22;;;13.30;75.00;;;;;;5015749;28;20029;-71
2021/12/05 16:49:11;;;;;;;14.27;4.18;;;13.30;75.20;;;;;;5032779;28;20101;-70
2021/12/05 16:51:51;;;;;;;19.85;5.13;;;13.30;75.50;;;;;;5032708;28;20013;-70
2021/12/05 16:54:25;;;;;;;15.50;4.50;;;13.20;75.40;;;;;;5032718;28;20196;-72
2021/12/05 16:56:59;;;;;;;11.60;4.65;;;13.20;75.80;;;;;;5032517;28;20018;-75
2021/12/05 16:59:39;;;;;;;18.40;5.28;;;13.20;76.00;;;;;;5032956;28;20026;-71
2021/12/05 17:02:27;;;;;;;17.67;4.60;;;13.10;76.10;;;;;;5032713;28;20030;-73
2021/12/05 17:05:16;;;;;;;27.20;5.57;;;13.10;76.00;;;;;;5032577;28;20033;-71
2021/12/05 17:07:55;;;;;;;18.77;5.03;;;13.10;75.90;;;;;;5032981;28;20038;-71
2021/12/05 17:10:21;;;;;;;14.13;5.05;;;13.10;76.30;;;;;;5033809;28;20023;-73
2021/12/05 17:12:56;;;;;;;19.55;6.28;;;13.10;76.40;;;;;;5034769;28;20096;-72
2021/12/05 17:15:26;;;;;;;18.20;6.55;;;13.00;76.50;;;;;;5019285;28;20037;-69
2021/12/05 17:18:01;;;;;;;18.40;6.43;;;13.00;76.80;;;;;;5036620;28;20022;-71
2021/12/05 17:20:30;;;;;;;15.32;5.80;;;12.90;77.10;;;;;;5035681;28;20375;-71
2021/12/05 17:23:06;;;;;;;14.82;5.32;;;12.90;77.60;;;;;;5018400;28;20444;-75
2021/12/05 17:25:38;;;;;;;12.60;5.60;;;12.80;78.50;;;;;;5035925;28;20030;-75
2021/12/05 17:28:08;;;;;;;12.20;5.20;;;12.70;78.50;;;;;;5035613;28;20022;-70
2021/12/05 17:30:35;;;;;;;18.17;6.43;;;12.70;78.90;;;;;;5036103;28;20129;-71
2021/12/05 17:33:01;;;;;;;16.02;6.25;;;12.70;79.30;;;;;;5035803;28;20030;-70
2021/12/05 17:35:29;;;;;;;16.35;6.45;;;12.60;79.80;;;;;;5035881;28;20079;-73
2021/12/05 17:37:55;;;;;;;14.93;6.95;;;12.60;79.90;;;;;;5036005;28;20018;-70
2021/12/05 17:40:22;;;;;;;13.65;6.57;;;12.50;80.20;;;;;;5035758;28;20044;-71
2021/12/05 17:42:48;;;;;;;18.73;7.70;;;12.50;80.40;;;;;;5018458;28;20040;-73
2021/12/05 17:45:15;;;;;;;18.13;7.20;;;12.60;80.90;;;;;;5035721;28;20021;-71
2021/12/05 17:47:41;;;;;;;20.30;6.57;;;12.50;80.60;;;;;;5035603;28;20386;-71
2021/12/05 17:50:15;;;;;;;22.13;7.40;;;12.50;80.80;;;;;;5035586;28;20035;-70
2021/12/05 17:52:41;;;;;;;14.80;6.40;;;12.50;81.00;;;;;;5035510;28;20026;-72
2021/12/05 17:55:19;;;;;;;19.83;6.43;;;12.40;79.90;;;;;;5035448;28;20028;-70
2021/12/05 17:57:54;;;;;;;12.65;5.05;;;12.40;79.40;;;;;;5035256;28;20025;-71
2021/12/05 18:02:55;;;;;;;19.05;5.63;;;12.40;78.50;;;;;;5018930;28;20029;-69
2021/12/05 18:05:25;;;;;;;17.38;4.90;;;12.30;78.10;;;;;;5035709;28;20036;-72
2021/12/05 18:07:55;;;;;;;15.45;4.32;;;12.30;77.80;;;;;;5035670;28;20386;-73
2021/12/05 18:10:25;;;;;;;13.10;4.20;;;12.20;77.20;;;;;;5035075;28;20039;-69
2021/12/05 18:12:56;;;;;;;11.48;3.70;;;12.20;77.20;;;;;;5035922;28;20021;-71
2021/12/05 18:15:27;;;;;;;12.68;4.13;;;12.20;76.50;;;;;;5036925;28;20038;-71
2021/12/05 18:17:55;;;;;;;10.95;3.92;;;12.20;76.80;;;;;;5037169;28;20038;-71
2021/12/05 18:20:25;;;;;;;11.10;3.75;;;12.20;76.60;;;;;;5036018;28;20030;-70
2021/12/05 18:22:59;;;;;;;18.40;5.97;;;12.00;76.30;;;;;;5035113;28;20032;-73
2021/12/05 18:25:25;;;;;;;;;;;12.00;76.30;;;;;;5035043;28;20033;-70
2021/12/05 18:27:51;;;;;;;13.07;4.38;;;12.00;76.40;;;;;;5035359;28;19916;-72
2021/12/05 18:30:22;;;;;;;10.18;4.50;;;11.90;77.10;;;;;;5017033;28;20136;-72
2021/12/05 18:32:49;;;;;;;11.82;4.50;;;11.90;76.70;;;;;;5035055;28;20028;-70
2021/12/05 18:35:16;;;;;;;13.82;4.80;;;11.90;76.90;;;;;;5035082;28;20386;-70
2021/12/05 18:37:43;;;;;;;10.82;4.43;;;11.80;76.90;;;;;;5034468;28;20018;-70